A101 OTHH-OTHH
Flight info
| Callsign | A101 |
|---|---|
| Flight time | 0h 12m |
| Altitude | 2500 |
| Route | VFR |
| Aircraft | EDGE/L-V/N |
Departure
| Time | 2026-05-06 18:49 |
|---|---|
| Airport | Hamad International Airport (OTHH) |
Arrival
| Time | 2026-05-06 19:02 |
|---|---|
| Airport | Hamad International Airport (OTHH) |
| Time | Latitude | Longitude | Altitude | Speed | Heading |
|---|---|---|---|---|---|
| 2026-05-06 18:41 | 25.25333 | 51.59989 | 23 ft | 0 kts | 248° |
| 2026-05-06 18:41 | 25.25332 | 51.59987 | 23 ft | 0 kts | 248° |
| 2026-05-06 18:46 | 25.25332 | 51.59986 | 23 ft | 0 kts | 248° |
| 2026-05-06 18:47 | 25.25325 | 51.59985 | 23 ft | 5 kts | 74° |
| 2026-05-06 18:47 | 25.25352 | 51.60067 | 23 ft | 14 kts | 101° |
| 2026-05-06 18:47 | 25.25316 | 51.60163 | 23 ft | 13 kts | 57° |
| 2026-05-06 18:47 | 25.25388 | 51.60174 | 23 ft | 13 kts | 337° |
| 2026-05-06 18:48 | 25.25462 | 51.60140 | 23 ft | 11 kts | 340° |
| 2026-05-06 18:48 | 25.25517 | 51.60189 | 23 ft | 18 kts | 84° |
| 2026-05-06 18:48 | 25.25470 | 51.60326 | 22 ft | 21 kts | 131° |
| 2026-05-06 18:48 | 25.25475 | 51.60445 | 20 ft | 15 kts | 63° |
| 2026-05-06 18:49 | 25.25560 | 51.60521 | 18 ft | 15 kts | 4° |
| 2026-05-06 18:49 | 25.25896 | 51.60389 | 161 ft | 111 kts | 342° |
| 2026-05-06 18:49 | 25.26885 | 51.59952 | 374 ft | 183 kts | 339° |
| 2026-05-06 18:49 | 25.28127 | 51.59371 | 715 ft | 197 kts | 343° |
| 2026-05-06 18:50 | 25.29338 | 51.59615 | 906 ft | 214 kts | 52° |
| 2026-05-06 18:50 | 25.29837 | 51.61223 | 1160 ft | 222 kts | 73° |
| 2026-05-06 18:50 | 25.29550 | 51.62917 | 1197 ft | 243 kts | 131° |
| 2026-05-06 18:50 | 25.28028 | 51.63516 | 1094 ft | 195 kts | 168° |
| 2026-05-06 18:51 | 25.27048 | 51.63876 | 982 ft | 120 kts | 163° |
| 2026-05-06 18:51 | 25.26281 | 51.64252 | 782 ft | 123 kts | 159° |
| 2026-05-06 18:51 | 25.25553 | 51.64661 | 723 ft | 113 kts | 154° |
| 2026-05-06 18:51 | 25.24877 | 51.65060 | 549 ft | 116 kts | 155° |
| 2026-05-06 18:52 | 25.24200 | 51.65438 | 506 ft | 105 kts | 155° |
| 2026-05-06 18:52 | 25.23593 | 51.65594 | 542 ft | 77 kts | 217° |
| 2026-05-06 18:52 | 25.23199 | 51.65178 | 433 ft | 87 kts | 240° |
| 2026-05-06 18:52 | 25.22922 | 51.64555 | 403 ft | 109 kts | 274° |
| 2026-05-06 18:53 | 25.23311 | 51.63690 | 364 ft | 126 kts | 328° |
| 2026-05-06 18:53 | 25.23823 | 51.63438 | 279 ft | 66 kts | 343° |
| 2026-05-06 18:53 | 25.24241 | 51.63234 | 216 ft | 65 kts | 342° |
| 2026-05-06 18:53 | 25.24668 | 51.63054 | 158 ft | 66 kts | 344° |
| 2026-05-06 18:54 | 25.25092 | 51.62842 | 117 ft | 68 kts | 344° |
| 2026-05-06 18:54 | 25.25569 | 51.62659 | 50 ft | 83 kts | 343° |
| 2026-05-06 18:54 | 25.26119 | 51.62412 | 142 ft | 120 kts | 342° |
| 2026-05-06 18:54 | 25.27113 | 51.61968 | 408 ft | 178 kts | 340° |
| 2026-05-06 18:55 | 25.28355 | 51.61429 | 671 ft | 196 kts | 341° |
| 2026-05-06 18:55 | 25.29616 | 51.60973 | 1405 ft | 183 kts | 7° |
| 2026-05-06 18:55 | 25.29986 | 51.62136 | 1381 ft | 165 kts | 122° |
| 2026-05-06 18:55 | 25.29316 | 51.62702 | 905 ft | 113 kts | 154° |
| 2026-05-06 18:56 | 25.28219 | 51.63262 | 618 ft | 218 kts | 162° |
| 2026-05-06 18:56 | 25.26748 | 51.63661 | 552 ft | 199 kts | 172° |
| 2026-05-06 18:56 | 25.25458 | 51.63897 | 518 ft | 185 kts | 174° |
| 2026-05-06 18:56 | 25.24195 | 51.64480 | 851 ft | 182 kts | 142° |
| 2026-05-06 18:57 | 25.23332 | 51.65005 | 864 ft | 137 kts | 161° |
| 2026-05-06 18:57 | 25.23452 | 51.65466 | 1147 ft | 102 kts | 304° |
| 2026-05-06 18:57 | 25.23021 | 51.65431 | 1127 ft | 137 kts | 66° |
| 2026-05-06 18:57 | 25.23215 | 51.65051 | 1078 ft | 157 kts | 213° |
| 2026-05-06 18:58 | 25.23227 | 51.63755 | 615 ft | 198 kts | 327° |
| 2026-05-06 18:58 | 25.24433 | 51.63203 | 361 ft | 172 kts | 341° |
| 2026-05-06 18:58 | 25.25669 | 51.62635 | 85 ft | 214 kts | 340° |
| 2026-05-06 18:58 | 25.26989 | 51.62064 | 583 ft | 202 kts | 342° |
| 2026-05-06 18:59 | 25.28328 | 51.61519 | 627 ft | 206 kts | 335° |
| 2026-05-06 18:59 | 25.29449 | 51.61486 | 965 ft | 214 kts | 74° |
| 2026-05-06 18:59 | 25.29392 | 51.63222 | 1037 ft | 242 kts | 107° |
| 2026-05-06 18:59 | 25.28267 | 51.64471 | 830 ft | 255 kts | 174° |
| 2026-05-06 19:00 | 25.26515 | 51.64662 | 752 ft | 258 kts | 181° |
| 2026-05-06 19:00 | 25.24703 | 51.64674 | 607 ft | 258 kts | 184° |
| 2026-05-06 19:00 | 25.24351 | 51.64865 | 1210 ft | 182 kts | 237° |
| 2026-05-06 19:00 | 25.24385 | 51.65018 | 1136 ft | 154 kts | 266° |
| 2026-05-06 19:01 | 25.23625 | 51.65162 | 1072 ft | 179 kts | 75° |
| 2026-05-06 19:01 | 25.24009 | 51.64765 | 911 ft | 187 kts | 221° |
| 2026-05-06 19:01 | 25.23928 | 51.65116 | 920 ft | 166 kts | 297° |
| 2026-05-06 19:01 | 25.24040 | 51.63548 | 440 ft | 226 kts | 292° |
| 2026-05-06 19:02 | 25.25329 | 51.62781 | 124 ft | 180 kts | 340° |
| 2026-05-06 19:02 | 25.26095 | 51.62448 | 20 ft | 47 kts | 334° |
| 2026-05-06 19:02 | 25.26148 | 51.62425 | 20 ft | 0 kts | 334° |
| 2026-05-06 19:02 | 25.26155 | 51.62423 | 20 ft | 19 kts | 343° |
| 2026-05-06 19:03 | 25.26811 | 51.62122 | 66 ft | 157 kts | 340° |
| 2026-05-06 19:03 | 25.27986 | 51.61618 | 267 ft | 199 kts | 340° |
| 2026-05-06 19:03 | 25.29264 | 51.61060 | 910 ft | 199 kts | 342° |
| 2026-05-06 19:03 | 25.29882 | 51.62109 | 1342 ft | 218 kts | 83° |
| 2026-05-06 19:04 | 25.29562 | 51.63622 | 1301 ft | 243 kts | 164° |
| 2026-05-06 19:04 | 25.27972 | 51.64311 | 1472 ft | 247 kts | 164° |
| 2026-05-06 19:04 | 25.26303 | 51.64762 | 1553 ft | 248 kts | 175° |
| 2026-05-06 19:04 | 25.24616 | 51.65006 | 1660 ft | 246 kts | 180° |
| 2026-05-06 19:05 | 25.24531 | 51.63434 | 464 ft | 258 kts | 296° |
| 2026-05-06 19:05 | 25.25989 | 51.62486 | 72 ft | 247 kts | 341° |
| 2026-05-06 19:05 | 25.27482 | 51.61828 | 728 ft | 211 kts | 340° |
| 2026-05-06 19:05 | 25.28840 | 51.61255 | 993 ft | 220 kts | 341° |
| 2026-05-06 19:06 | 25.29686 | 51.61985 | 877 ft | 248 kts | 87° |
| 2026-05-06 19:06 | 25.29496 | 51.63839 | 722 ft | 250 kts | 168° |
| 2026-05-06 19:06 | 25.27785 | 51.63873 | 977 ft | 245 kts | 178° |
| 2026-05-06 19:06 | 25.26160 | 51.64181 | 1658 ft | 225 kts | 169° |
| 2026-05-06 19:07 | 25.24546 | 51.64572 | 729 ft | 268 kts | 172° |
| 2026-05-06 19:07 | 25.24225 | 51.65544 | 939 ft | 196 kts | 343° |
| 2026-05-06 19:07 | 25.23868 | 51.65135 | 1013 ft | 196 kts | 111° |
| 2026-05-06 19:07 | 25.24379 | 51.65279 | 1207 ft | 177 kts | 253° |
| 2026-05-06 19:08 | 25.23970 | 51.65748 | 800 ft | 189 kts | 351° |
| 2026-05-06 19:08 | 25.23602 | 51.64962 | 925 ft | 204 kts | 148° |
| 2026-05-06 19:08 | 25.23925 | 51.65290 | 1030 ft | 172 kts | 264° |
| 2026-05-06 19:08 | 25.23412 | 51.65692 | 732 ft | 198 kts | 4° |